Schedule Details


Flight Number: CTN441
Departure: Schwechat (LOWW) at 10:10
Arrival: Franjo Tudman (LDZA) at 11:05
Route: SASAL?DCT?SUNIS?DCT?PETOV

Weather Information
LOWW 172320Z 15006KT CAVOK 19/13 Q1017 NOSIG
LDZA 172300Z 00000KT CAVOK 18/15 Q1017 NOSIG
Schedule Frequency

Route Map